• Join FlightAware (Why Join?)
  • Login
  • US Flag 
07:48PM EDT


 

Airport Tracker/Info


-or-


 

Live Flight TrackerFlight Track Log ✈ AWE3417 ✈ 20-Jun-2013 ✈ KSDF - KDCA

Flight Track Log - Related Links

Times and Time Zones

All times are in EDT time to prevent confusion due to time zone crossing. See the AWE3417 flight status page for this flight to view local times or setup timezone preferences in your user account.

Time Position Orientation Groundspeed Altitude Reporting Facility
EDT Latitude Longitude Course Direction KTS MPH feet Rate Location/Type
05:23PM 38.1333 -85.7333 99° East 181 208 2,100  Level Louisville TRACON
05:24PM 38.0758 -85.6950 152° Southeast 255 293 4,200 3,000 Climbing Indianapolis Center
05:25PM 38.0667 -85.4074 90° East  Level FlightAware Approximate
05:25PM 38.0731 -85.5758 92° East 275 316 9,000  Level Indianapolis Center
05:26PM 38.0652 -85.2752 103° East  Level FlightAware Approximate
05:26PM 38.0736 -85.4658 90° East 314 361 11,100  Level Indianapolis Center
05:27PM 38.0418 -85.1462 103° East  Level FlightAware Approximate
05:27PM 38.0714 -85.3400 91° East 354 407 14,000  Level Indianapolis Center
05:28PM 38.0249 -85.0159 99° East  Level FlightAware Approximate
05:28PM 38.0633 -85.2125 95° East 361 415 16,300  Level Indianapolis Center
05:29PM 38.0419 -85.0636 100° East 375 432 18,600 2,520 Climbing Indianapolis Center
05:30PM 38.0272 -84.9283 98° East 384 442 21,600 2,340 Climbing Indianapolis Center
05:32PM 38.0069 -84.8000 101° East 375 432 23,500 2,040 Climbing Indianapolis Center
05:33PM 37.9900 -84.6669 99° East 378 435 25,900 1,980 Climbing Indianapolis Center
05:34PM 37.9728 -84.5322 99° East 385 443 27,700 1,860 Climbing Indianapolis Center
05:35PM 37.9822 -84.3703 86° East 396 456 29,800 1,800 Climbing Indianapolis Center
05:36PM 38.0031 -84.2369 79° East 385 443 31,500 1,560 Climbing Indianapolis Center
05:37PM 38.0225 -84.1031 80° East 386 444 33,100 1,200 Climbing Indianapolis Center
05:38PM 38.0425 -83.9686 79° East 386 444 34,100 840 Climbing Indianapolis Center
05:39PM 38.0628 -83.8325 79° East 390 449 34,900 420 Climbing Indianapolis Center
05:40PM 38.0856 -83.6861 79° East 413 475 35,000  Climbing Indianapolis Center
05:41PM 38.1106 -83.5119 80° East 428 493 35,000  Level Indianapolis Center
05:42PM 38.1317 -83.3622 80° East 431 496 35,000  Level Indianapolis Center
05:43PM 38.1528 -83.2158 80° East 423 487 35,000  Level Indianapolis Center
05:44PM 38.1736 -83.0650 80° East 431 496 35,000  Level Indianapolis Center
05:45PM 38.1944 -82.9164 80° East 427 491 35,000  Level Indianapolis Center
05:46PM 38.2153 -82.7664 80° East 428 493 35,000  Level Indianapolis Center
05:47PM 38.2392 -82.5925 80° East 426 490 35,000  Level Indianapolis Center
05:48PM 38.2581 -82.4539 80° East 424 488 35,000  Level Indianapolis Center
05:49PM 38.2783 -82.3078 80° East 423 487 35,000  Level Indianapolis Center
05:50PM 38.2986 -82.1608 80° East 422 486 35,000  Level Indianapolis Center
05:51PM 38.3178 -82.0169 80° East 416 479 35,000  Level Indianapolis Center
05:52PM 38.3406 -81.8417 81° East 419 482 35,000  Level Indianapolis Center
05:53PM 38.3475 -81.6942 87° East 420 483 35,000  Level Indianapolis Center
05:54PM 38.3422 -81.5483 93° East 418 481 35,000  Level Indianapolis Center
05:55PM 38.3381 -81.4017 92° East 418 481 35,000  Level Indianapolis Center
05:56PM 38.3317 -81.2244 93° East 422 486 35,000  Level Indianapolis Center
05:57PM 38.3256 -81.0742 93° East 426 490 35,000  Level Indianapolis Center
05:58PM 38.3211 -80.9275 92° East 419 482 35,000  Level Indianapolis Center
05:59PM 38.3150 -80.7789 93° East 421 484 35,000  Level Indianapolis Center
06:00PM 38.3103 -80.6300 92° East 423 487 35,000 -420 Level Indianapolis Center
06:02PM 38.3106 -80.4794 90° East 423 487 34,200 -1,020 Descending Indianapolis Center
06:03PM 38.3306 -80.3006 82° East 426 490 33,000 -660 Descending Indianapolis Center
06:04PM 38.3494 -80.1422 81° East 435 501 32,900 -540 Descending Indianapolis Center
06:05PM 38.3647 -79.9956 82° East 431 496 31,900 -960 Descending Indianapolis Center
06:06PM 38.3819 -79.8506 81° East 426 490 31,000 -960 Descending Indianapolis Center
06:07PM 38.3969 -79.7017 83° East 432 497 30,000 -1,080 Descending Indianapolis Center
06:08PM 38.4161 -79.5214 82° East 436 502 28,800 -1,020 Descending Indianapolis Center
06:09PM 38.4317 -79.3753 82° East 428 493 28,000 -420 Descending Indianapolis Center
06:10PM 38.4547 -79.1975 81° East 423 487 28,000  Level Washington Center
06:11PM 38.4694 -79.0603 82° East 423 487 28,000 -720 Level Washington Center
06:12PM 38.4944 -78.9103 78° East 423 487 26,700 -1,800 Descending Washington Center
06:13PM 38.5178 -78.7442 80° East 431 496 24,500 -2,040 Descending Washington Center
06:14PM 38.5403 -78.5992 79° East 426 490 22,600 -1,740 Descending Washington Center
06:15PM 38.5625 -78.4567 79° East 421 484 21,000 -1,740 Descending Washington Center
06:16PM 38.5864 -78.3219 77° East 401 461 19,200 -1,860 Descending Washington Center
06:17PM 38.6164 -78.1903 74° East 387 445 17,400 -1,740 Descending Washington Center
06:18PM 38.6567 -78.0667 67° East 377 434 15,700 -1,500 Descending Washington Center
06:19PM 38.6944 -77.9431 69° East 372 428 14,400 -1,380 Descending Washington Center
06:20PM 38.7342 -77.8272 66° East 360 414 13,000 -1,440 Descending Washington Center
06:21PM 38.7942 -77.7358 50° Northeast 342 394 11,600 -1,440 Descending Washington Center
06:22PM 38.8583 -77.6497 46° Northeast 332 382 10,200 -1,380 Descending Washington Center
06:23PM 38.9097 -77.5683 51° Northeast 302 348 8,800 -1,140 Descending Washington Center
06:24PM 38.9464 -77.4894 59° Northeast 294 338 8,000 -660 Descending Washington Center
06:25PM 38.8833 -77.3667 123° Southeast 270 311 7,300 -480 Descending Potomac TRACON
06:26PM 38.8500 -77.3000 123° Southeast 228 262 7,000 -300 Descending Potomac TRACON
06:27PM 38.8500 -77.2333 90° East 214 246 6,700 -540 Descending Potomac TRACON
06:28PM 38.8833 -77.2000 38° Northeast 217 250 6,000 -360 Descending Potomac TRACON
06:29PM 38.9167 -77.2667 303° West 201 231 6,000  Level Potomac TRACON
06:30PM 38.9667 -77.3167 322° Northwest 201 231 6,000  Level Potomac TRACON
06:31PM 39.0000 -77.3500 322° Northwest 202 232 6,000 -540 Level Potomac TRACON
06:32PM 39.0333 -77.3167 38° Northeast 213 245 5,000 -780 Descending Potomac TRACON
06:33PM 39.0167 -77.2500 108° East 183 211 4,500 -1,020 Descending Potomac TRACON
06:34PM 39.0000 -77.2000 113° Southeast 176 203 3,000 -1,500 Descending Potomac TRACON